Fenwick, West Virginia
Current Conditions -  °F | °C
As of 2:55 AM on Friday 31 Oct 2014 (Local Time) from KLWB Reporting Station
Scattered Clouds Scattered Clouds  
Wind Chill: 30°   Ceiling: Unl
Heat Index: 30°   Visibility: 10mi
Dew Point: 28°   Wind: 3mph
Humidity: 93%   Direction: 20°NNE
Pressure: 30"   Gusts: NA
Location:  38.23°N, 80.58°W
Report Text: KLWB 310655Z AUTO 02003KT 10SM SCT037 M01/M02 A3000 RMK AO2 T10121022
Loading
Personal Weather Stations






























Interactive Weather Map
Tropical Storm Tracking
New forecast layout! Learn more

10-Day Weather Forecast

Advertisements
Track Severe Weather on mobile